createdAt,value
2023-02-19T00:01:25.004Z,92.50
2023-02-19T00:03:53.709Z,92.12
2023-02-19T00:06:21.156Z,92.43
2023-02-19T00:08:47.830Z,92.00
2023-02-19T00:11:17.093Z,92.16
2023-02-19T00:13:46.097Z,91.59
2023-02-19T00:16:14.625Z,91.91
2023-02-19T00:18:41.977Z,91.78
2023-02-19T00:21:08.854Z,91.24
2023-02-19T00:23:36.001Z,91.02
2023-02-19T00:26:17.581Z,90.90
2023-02-19T00:28:44.819Z,90.91
2023-02-19T00:31:21.171Z,90.69
2023-02-19T00:33:48.765Z,90.25
2023-02-19T00:36:15.555Z,90.53
2023-02-19T00:38:42.892Z,90.51
2023-02-19T00:41:19.275Z,90.19
2023-02-19T00:43:55.677Z,90.31
2023-02-19T00:46:27.667Z,90.19
2023-02-19T00:48:54.766Z,89.62
2023-02-19T00:51:23.326Z,89.96
2023-02-19T00:53:50.086Z,89.95
2023-02-19T00:56:16.766Z,89.63
2023-02-19T00:58:43.269Z,89.51
2023-02-19T01:01:10.934Z,89.10
2023-02-19T01:03:38.622Z,88.98
2023-02-19T01:06:06.203Z,89.04
2023-02-19T01:08:33.746Z,88.50
2023-02-19T01:11:01.295Z,88.93
2023-02-19T01:13:28.512Z,88.33
2023-02-19T01:16:12.491Z,88.52
2023-02-19T01:18:39.757Z,88.10
2023-02-19T01:21:07.669Z,87.99
2023-02-19T01:23:34.952Z,88.21
2023-02-19T01:26:05.264Z,88.40
2023-02-19T01:28:31.770Z,88.10
2023-02-19T01:31:04.796Z,88.29
2023-02-19T01:33:31.850Z,88.34
2023-02-19T01:35:58.425Z,88.19
2023-02-19T01:38:25.122Z,88.24
2023-02-19T01:41:14.124Z,88.51
2023-02-19T01:43:55.731Z,88.24
2023-02-19T01:46:28.690Z,88.00
2023-02-19T01:48:57.722Z,87.81
2023-02-19T01:51:24.290Z,87.51
2023-02-19T01:53:55.136Z,87.42
2023-02-19T01:56:22.786Z,87.33
2023-02-19T01:58:49.362Z,87.48
2023-02-19T02:01:15.924Z,87.22
2023-02-19T02:03:45.596Z,87.22
2023-02-19T02:06:26.293Z,87.32
2023-02-19T02:09:14.358Z,87.32
2023-02-19T02:11:45.472Z,87.19
2023-02-19T02:14:12.337Z,86.91
2023-02-19T02:16:48.703Z,87.32
2023-02-19T02:19:34.017Z,86.65
2023-02-19T02:22:05.767Z,86.53
2023-02-19T02:24:41.112Z,86.53
2023-02-19T02:27:18.202Z,87.23
2023-02-19T02:30:01.796Z,87.32
2023-02-19T02:32:34.561Z,86.79
2023-02-19T02:35:08.681Z,87.25
2023-02-19T02:37:37.731Z,87.01
2023-02-19T02:40:05.117Z,86.72
2023-02-19T02:42:33.723Z,86.63
2023-02-19T02:45:36.584Z,86.39
2023-02-19T02:48:03.291Z,86.10
2023-02-19T02:50:34.641Z,86.31
2023-02-19T02:53:26.762Z,85.75
2023-02-19T02:55:54.158Z,85.78
2023-02-19T02:58:22.611Z,85.58
2023-02-19T03:01:11.677Z,85.04
2023-02-19T03:03:40.067Z,85.01
2023-02-19T03:06:07.724Z,85.49
2023-02-19T03:08:41.313Z,85.34
2023-02-19T03:11:28.714Z,85.24
2023-02-19T03:14:25.449Z,85.10
2023-02-19T03:17:14.668Z,84.60
2023-02-19T03:19:43.965Z,84.94
2023-02-19T03:22:34.387Z,84.78
2023-02-19T03:25:35.687Z,85.28
2023-02-19T03:28:04.589Z,85.59
2023-02-19T03:30:38.717Z,85.44
2023-02-19T03:33:09.974Z,85.56
2023-02-19T03:35:41.391Z,85.40
2023-02-19T03:38:25.553Z,85.50
2023-02-19T03:41:09.790Z,85.88
2023-02-19T03:43:48.572Z,85.39
2023-02-19T03:46:40.703Z,85.07
2023-02-19T03:49:33.114Z,85.41
2023-02-19T03:52:12.470Z,85.08
2023-02-19T03:54:47.434Z,85.28
2023-02-19T03:57:42.251Z,85.07
2023-02-19T04:00:28.018Z,85.29
2023-02-19T04:03:02.776Z,85.31
2023-02-19T04:05:35.996Z,85.03
2023-02-19T04:08:08.864Z,85.54
2023-02-19T04:10:35.919Z,85.59
2023-02-19T04:13:15.318Z,85.63
2023-02-19T04:15:43.134Z,85.85
2023-02-19T04:18:14.640Z,85.85
2023-02-19T04:20:44.807Z,85.69
2023-02-19T04:23:12.549Z,85.80
2023-02-19T04:25:40.616Z,85.87
2023-02-19T04:28:08.064Z,85.76
2023-02-19T04:30:34.669Z,85.25
2023-02-19T04:33:01.216Z,85.28
2023-02-19T04:35:27.696Z,84.57
2023-02-19T04:37:54.158Z,84.44
2023-02-19T04:40:20.635Z,84.18
2023-02-19T04:42:47.126Z,84.31
2023-02-19T04:45:13.747Z,83.73
2023-02-19T04:47:40.197Z,83.86
2023-02-19T04:50:06.800Z,82.82
2023-02-19T04:52:33.408Z,82.73
2023-02-19T04:54:59.851Z,82.66
2023-02-19T04:57:26.340Z,82.14
2023-02-19T04:59:53.036Z,82.01
2023-02-19T05:02:19.511Z,82.09
2023-02-19T05:04:45.943Z,82.25
2023-02-19T05:07:12.419Z,82.26
2023-02-19T05:09:39.128Z,82.99
2023-02-19T05:12:05.972Z,82.69
2023-02-19T05:14:32.438Z,83.16
2023-02-19T05:16:58.941Z,83.26
2023-02-19T05:19:25.391Z,83.64
2023-02-19T05:21:51.877Z,83.49
2023-02-19T05:24:19.295Z,84.30
2023-02-19T05:26:45.777Z,84.53
2023-02-19T05:29:12.212Z,84.92
2023-02-19T05:31:38.802Z,85.36
2023-02-19T05:34:05.284Z,86.33
2023-02-19T05:36:32.091Z,86.58
2023-02-19T05:38:58.921Z,86.54
2023-02-19T05:41:27.341Z,87.10
2023-02-19T05:43:54.724Z,87.63
2023-02-19T05:46:23.854Z,88.43
2023-02-19T05:48:51.517Z,88.99
2023-02-19T05:51:21.084Z,89.69
2023-02-19T05:53:48.327Z,90.20
2023-02-19T05:56:23.829Z,90.46
2023-02-19T05:58:50.700Z,90.79
2023-02-19T06:01:18.865Z,91.29
2023-02-19T06:03:45.700Z,91.34
2023-02-19T06:06:13.633Z,91.70
2023-02-19T06:08:40.148Z,91.80
2023-02-19T06:11:06.686Z,92.30
2023-02-19T06:13:33.173Z,92.35
2023-02-19T06:16:00.087Z,92.76
2023-02-19T06:18:26.612Z,93.05
2023-02-19T06:20:53.107Z,92.95
2023-02-19T06:23:19.602Z,92.79
2023-02-19T06:25:46.113Z,92.59
2023-02-19T06:28:12.587Z,92.51
2023-02-19T06:30:39.127Z,92.44
2023-02-19T06:33:05.675Z,92.52
2023-02-19T06:35:32.172Z,92.26
2023-02-19T06:37:58.711Z,92.40
2023-02-19T06:40:25.224Z,91.99
2023-02-19T06:42:51.731Z,91.78
2023-02-19T06:45:18.244Z,91.78
2023-02-19T06:47:44.743Z,91.49
2023-02-19T06:50:11.305Z,90.94
2023-02-19T06:52:37.816Z,90.40
2023-02-19T06:55:04.628Z,90.51
2023-02-19T06:57:31.158Z,90.29
2023-02-19T06:59:57.750Z,89.96
2023-02-19T07:02:24.280Z,89.99
2023-02-19T07:04:50.804Z,89.42
2023-02-19T07:07:17.332Z,89.40
2023-02-19T07:09:43.808Z,89.08
2023-02-19T07:12:10.756Z,88.54
2023-02-19T07:14:37.350Z,88.76
2023-02-19T07:17:03.854Z,88.83
2023-02-19T07:19:30.379Z,88.21
2023-02-19T07:21:56.892Z,88.04
2023-02-19T07:24:23.662Z,88.35
2023-02-19T07:26:50.322Z,88.44
2023-02-19T07:29:16.998Z,88.27
2023-02-19T07:31:43.526Z,88.14
2023-02-19T07:34:10.064Z,87.64
2023-02-19T07:36:36.794Z,87.43
2023-02-19T07:39:03.826Z,87.70
2023-02-19T07:41:30.398Z,87.27
2023-02-19T07:43:56.962Z,86.80
2023-02-19T07:46:23.713Z,86.46
2023-02-19T07:48:50.552Z,86.28
2023-02-19T07:51:19.655Z,86.02
2023-02-19T07:53:47.237Z,86.28
2023-02-19T07:56:13.987Z,86.39
2023-02-19T07:58:40.749Z,85.78
2023-02-19T08:01:08.568Z,86.09
2023-02-19T08:03:36.402Z,86.02
2023-02-19T08:06:03.162Z,86.09
2023-02-19T08:08:29.746Z,86.54
2023-02-19T08:11:18.901Z,86.17
2023-02-19T08:13:48.509Z,86.68
2023-02-19T08:16:26.699Z,86.68
2023-02-19T08:18:56.536Z,86.19
2023-02-19T08:21:23.234Z,86.33
2023-02-19T08:23:51.181Z,86.24
2023-02-19T08:26:18.177Z,86.27
2023-02-19T08:28:44.931Z,86.30
2023-02-19T08:31:12.318Z,85.93
2023-02-19T08:33:40.216Z,85.86
2023-02-19T08:36:08.678Z,86.12
2023-02-19T08:38:36.416Z,85.84
2023-02-19T08:41:07.392Z,85.12
2023-02-19T08:43:34.758Z,84.67
2023-02-19T08:46:01.551Z,84.82
2023-02-19T08:48:28.857Z,83.66
2023-02-19T08:50:56.891Z,83.65
2023-02-19T08:53:24.193Z,83.23
2023-02-19T08:55:51.791Z,82.74
2023-02-19T08:58:18.344Z,82.47
2023-02-19T09:00:45.194Z,82.49
2023-02-19T09:03:11.701Z,81.74
2023-02-19T09:05:38.814Z,81.85
2023-02-19T09:08:05.599Z,81.48
2023-02-19T09:10:32.166Z,80.67
2023-02-19T09:12:58.662Z,77.60
2023-02-19T09:15:25.325Z,76.76
2023-02-19T09:17:52.761Z,76.21
2023-02-19T09:20:19.509Z,75.27
2023-02-19T09:22:46.385Z,74.72
2023-02-19T09:25:12.947Z,76.10
2023-02-19T09:27:39.467Z,76.08
2023-02-19T09:30:06.455Z,75.12
2023-02-19T09:32:33.233Z,75.97
2023-02-19T09:34:59.884Z,72.99
2023-02-19T09:37:29.434Z,71.06
2023-02-19T09:39:56.046Z,72.62
2023-02-19T09:42:24.982Z,72.82
2023-02-19T09:44:55.122Z,72.98
2023-02-19T09:47:32.001Z,73.03
2023-02-19T09:50:07.224Z,74.90
2023-02-19T09:52:37.717Z,77.06
2023-02-19T09:55:14.597Z,78.21
2023-02-19T09:57:41.858Z,78.40
2023-02-19T10:00:11.717Z,77.23
2023-02-19T10:02:38.776Z,76.20
2023-02-19T10:05:15.960Z,76.40
2023-02-19T10:07:48.044Z,75.40
2023-02-19T10:10:14.527Z,74.58
2023-02-19T10:12:47.412Z,74.11
2023-02-19T10:15:28.856Z,73.78
2023-02-19T10:17:55.512Z,73.12
2023-02-19T10:20:24.716Z,74.19
2023-02-19T10:23:11.603Z,74.02
2023-02-19T10:25:42.695Z,75.88
2023-02-19T10:28:29.620Z,76.86
2023-02-19T10:30:59.207Z,77.14
2023-02-19T10:33:26.372Z,77.63
2023-02-19T10:35:57.039Z,78.31
2023-02-19T10:38:28.324Z,78.62
2023-02-19T10:41:01.782Z,78.68
2023-02-19T10:43:34.090Z,78.42
2023-02-19T10:46:14.584Z,78.88
2023-02-19T10:48:47.231Z,79.19
2023-02-19T10:51:20.913Z,79.33
2023-02-19T10:53:52.590Z,78.50
2023-02-19T10:56:27.561Z,78.29
2023-02-19T10:58:54.463Z,78.27
2023-02-19T11:01:23.519Z,78.25
2023-02-19T11:03:51.764Z,77.97
2023-02-19T11:06:20.795Z,78.19
2023-02-19T11:08:52.112Z,78.68
2023-02-19T11:11:38.474Z,79.34
2023-02-19T11:14:16.015Z,79.32
2023-02-19T11:16:44.953Z,79.11
2023-02-19T11:19:24.642Z,79.00
2023-02-19T11:21:51.502Z,79.54
2023-02-19T11:24:34.334Z,79.37
2023-02-19T11:27:04.258Z,78.69
2023-02-19T11:29:34.785Z,78.74
2023-02-19T11:32:26.284Z,79.14
2023-02-19T11:35:04.496Z,78.91
2023-02-19T11:37:31.035Z,79.22
2023-02-19T11:39:57.553Z,79.27
2023-02-19T11:42:29.589Z,78.87
2023-02-19T11:44:59.282Z,79.46
2023-02-19T11:47:37.954Z,79.41
2023-02-19T11:50:19.755Z,78.75
2023-02-19T11:52:52.263Z,78.09
2023-02-19T11:55:32.517Z,78.40
2023-02-19T11:58:09.681Z,78.50
2023-02-19T12:00:47.817Z,77.95
2023-02-19T12:03:20.778Z,78.00
2023-02-19T12:05:56.605Z,79.27
2023-02-19T12:08:47.226Z,78.34
2023-02-19T12:11:35.502Z,78.38
2023-02-19T12:14:17.501Z,79.03
2023-02-19T12:17:09.399Z,80.85
2023-02-19T12:19:45.069Z,81.76
2023-02-19T12:22:28.043Z,82.14
2023-02-19T12:25:00.783Z,80.09
2023-02-19T12:27:37.458Z,79.97
2023-02-19T12:30:19.232Z,79.71
2023-02-19T12:33:04.541Z,78.73
2023-02-19T12:35:59.058Z,78.17
2023-02-19T12:38:35.192Z,77.71
2023-02-19T12:41:43.180Z,77.55
2023-02-19T12:44:19.939Z,76.44
2023-02-19T12:46:53.432Z,76.54
2023-02-19T12:49:35.736Z,76.20
2023-02-19T12:52:08.158Z,76.07
2023-02-19T12:54:38.155Z,75.59
2023-02-19T12:57:17.503Z,74.03
2023-02-19T12:59:49.630Z,73.96
2023-02-19T13:02:24.555Z,74.47
2023-02-19T13:05:15.728Z,75.29
2023-02-19T13:07:54.472Z,75.23
2023-02-19T13:10:49.890Z,76.25
2023-02-19T13:13:23.912Z,78.11
2023-02-19T13:15:53.535Z,79.74
2023-02-19T13:18:24.679Z,80.51
2023-02-19T13:20:51.906Z,81.37
2023-02-19T13:23:59.742Z,80.90
2023-02-19T13:26:49.225Z,81.20
2023-02-19T13:29:25.541Z,79.71
2023-02-19T13:32:10.696Z,77.78
2023-02-19T13:34:56.191Z,77.77
2023-02-19T13:37:23.124Z,78.67
2023-02-19T13:39:51.664Z,80.69
2023-02-19T13:42:31.514Z,82.14
2023-02-19T13:44:58.894Z,82.44
2023-02-19T13:47:58.841Z,83.68
2023-02-19T13:50:30.242Z,84.00
2023-02-19T13:52:58.413Z,83.50
2023-02-19T13:55:51.650Z,82.08
2023-02-19T13:58:33.212Z,82.06
2023-02-19T14:01:01.655Z,81.05
2023-02-19T14:03:31.052Z,81.56
2023-02-19T14:06:04.394Z,82.19
2023-02-19T14:08:50.394Z,82.22
2023-02-19T14:11:17.976Z,82.34
2023-02-19T14:13:47.498Z,83.12
2023-02-19T14:16:51.016Z,84.10
2023-02-19T14:19:36.237Z,85.00
2023-02-19T14:22:04.824Z,84.97
2023-02-19T14:24:33.428Z,85.91
2023-02-19T14:27:00.400Z,84.79
2023-02-19T14:29:28.179Z,84.21
2023-02-19T14:31:55.225Z,83.72
2023-02-19T14:34:23.575Z,83.72
2023-02-19T14:36:53.954Z,84.13
2023-02-19T14:39:24.410Z,83.26
2023-02-19T14:42:07.502Z,83.28
2023-02-19T14:44:57.337Z,81.45
2023-02-19T14:47:26.030Z,80.97
2023-02-19T14:49:57.864Z,80.62
2023-02-19T14:52:28.383Z,80.17
2023-02-19T14:55:01.530Z,80.01
2023-02-19T14:57:34.348Z,79.82
2023-02-19T15:00:03.958Z,80.81
2023-02-19T15:02:32.281Z,80.24
2023-02-19T15:04:58.933Z,81.15
2023-02-19T15:07:30.390Z,80.53
2023-02-19T15:10:04.794Z,79.01
2023-02-19T15:12:46.350Z,79.23
2023-02-19T15:15:18.717Z,79.12
2023-02-19T15:17:45.333Z,80.09
2023-02-19T15:20:17.425Z,79.42
2023-02-19T15:22:44.027Z,79.29
2023-02-19T15:25:17.726Z,79.56
2023-02-19T15:27:44.553Z,79.75
2023-02-19T15:30:28.596Z,79.66
2023-02-19T15:32:59.753Z,80.50
2023-02-19T15:35:28.021Z,80.47
2023-02-19T15:37:57.971Z,81.04
2023-02-19T15:40:31.373Z,82.13
2023-02-19T15:42:59.216Z,83.04
2023-02-19T15:45:32.124Z,82.36
2023-02-19T15:48:18.549Z,83.02
2023-02-19T15:50:51.978Z,83.49
2023-02-19T15:53:24.786Z,83.46
2023-02-19T15:56:06.493Z,83.98
2023-02-19T15:58:43.686Z,84.41
2023-02-19T16:01:19.179Z,84.67
2023-02-19T16:03:45.880Z,84.91
2023-02-19T16:06:17.869Z,84.82
2023-02-19T16:09:02.178Z,84.98
2023-02-19T16:11:40.569Z,85.26
2023-02-19T16:14:24.232Z,85.05
2023-02-19T16:16:55.868Z,84.93
2023-02-19T16:19:30.565Z,84.29
2023-02-19T16:21:58.430Z,83.95
2023-02-19T16:24:41.181Z,84.05
2023-02-19T16:27:08.043Z,83.88
2023-02-19T16:29:34.898Z,83.43
2023-02-19T16:32:04.101Z,83.13
2023-02-19T16:34:50.789Z,83.06
2023-02-19T16:37:33.730Z,82.48
2023-02-19T16:40:09.291Z,82.72
2023-02-19T16:42:36.972Z,82.07
2023-02-19T16:45:03.944Z,81.57
2023-02-19T16:47:37.770Z,81.70
2023-02-19T16:50:11.582Z,81.75
2023-02-19T16:52:39.360Z,82.38
2023-02-19T16:55:13.035Z,81.94
2023-02-19T16:57:39.867Z,81.87
2023-02-19T17:00:06.673Z,81.90
2023-02-19T17:02:33.890Z,82.19
2023-02-19T17:05:00.671Z,82.68
2023-02-19T17:07:27.689Z,82.42
2023-02-19T17:09:54.179Z,82.65
2023-02-19T17:12:21.375Z,82.47
2023-02-19T17:14:47.924Z,82.26
2023-02-19T17:17:14.580Z,82.20
2023-02-19T17:19:41.223Z,82.33
2023-02-19T17:22:08.047Z,82.50
2023-02-19T17:24:34.713Z,83.07
2023-02-19T17:27:01.271Z,82.98
2023-02-19T17:29:28.610Z,82.70
2023-02-19T17:31:55.255Z,83.41
2023-02-19T17:34:21.763Z,83.36
2023-02-19T17:36:48.295Z,83.85
2023-02-19T17:39:15.445Z,84.02
2023-02-19T17:41:42.386Z,84.25
2023-02-19T17:44:09.390Z,84.48
2023-02-19T17:46:36.554Z,84.67
2023-02-19T17:49:03.225Z,85.28
2023-02-19T17:51:29.799Z,85.33
2023-02-19T17:53:56.305Z,85.61
2023-02-19T17:56:26.564Z,85.50
2023-02-19T17:58:54.346Z,85.74
2023-02-19T18:01:21.474Z,85.82
2023-02-19T18:03:48.459Z,86.21
2023-02-19T18:06:14.956Z,86.17
2023-02-19T18:08:48.185Z,86.06
2023-02-19T18:11:14.901Z,85.97
2023-02-19T18:13:41.476Z,86.02
2023-02-19T18:16:08.222Z,85.75
2023-02-19T18:18:34.725Z,85.88
2023-02-19T18:21:01.272Z,85.67
2023-02-19T18:23:27.786Z,85.66
2023-02-19T18:25:54.528Z,85.70
2023-02-19T18:28:21.071Z,85.75
2023-02-19T18:30:47.783Z,85.69
2023-02-19T18:33:14.446Z,85.70
2023-02-19T18:35:41.006Z,85.96
2023-02-19T18:38:07.704Z,86.07
2023-02-19T18:40:34.328Z,86.21
2023-02-19T18:43:00.863Z,86.36
2023-02-19T18:45:29.642Z,86.44
2023-02-19T18:47:56.236Z,86.39
2023-02-19T18:50:22.775Z,86.54
2023-02-19T18:52:49.707Z,86.80
2023-02-19T18:55:16.293Z,86.92
2023-02-19T18:57:42.881Z,86.83
2023-02-19T19:00:10.266Z,86.88
2023-02-19T19:02:48.865Z,87.13
2023-02-19T19:05:22.938Z,87.37
2023-02-19T19:07:51.229Z,87.28
2023-02-19T19:10:18.513Z,87.51
2023-02-19T19:12:45.119Z,87.90
2023-02-19T19:15:11.740Z,87.99
2023-02-19T19:17:39.174Z,88.17
2023-02-19T19:20:06.579Z,88.17
2023-02-19T19:22:33.235Z,88.27
2023-02-19T19:25:00.246Z,88.50
2023-02-19T19:27:26.847Z,88.94
2023-02-19T19:29:53.582Z,88.72
2023-02-19T19:32:20.121Z,88.67
2023-02-19T19:34:47.571Z,88.78
2023-02-19T19:37:14.162Z,89.01
2023-02-19T19:39:42.799Z,89.06
2023-02-19T19:42:09.868Z,88.95
2023-02-19T19:44:36.566Z,89.14
2023-02-19T19:47:03.114Z,89.06
2023-02-19T19:49:29.811Z,88.82
2023-02-19T19:52:00.934Z,88.88
2023-02-19T19:54:28.201Z,89.05
2023-02-19T19:56:54.767Z,89.14
2023-02-19T19:59:22.430Z,89.05
2023-02-19T20:01:54.696Z,89.00
2023-02-19T20:04:22.424Z,88.90
2023-02-19T20:06:49.140Z,89.20
2023-02-19T20:09:16.961Z,88.61
2023-02-19T20:11:47.915Z,88.91
2023-02-19T20:14:15.172Z,88.27
2023-02-19T20:16:44.554Z,88.25
2023-02-19T20:19:11.372Z,88.05
2023-02-19T20:21:37.911Z,88.17
2023-02-19T20:24:04.812Z,87.89
2023-02-19T20:26:32.213Z,87.98
2023-02-19T20:28:58.857Z,87.71
2023-02-19T20:31:25.947Z,87.50
2023-02-19T20:33:52.734Z,87.22
2023-02-19T20:36:20.219Z,87.20
2023-02-19T20:38:48.828Z,86.88
2023-02-19T20:41:15.369Z,86.71
2023-02-19T20:43:41.918Z,86.79
2023-02-19T20:46:08.465Z,86.72
2023-02-19T20:48:35.151Z,86.63
2023-02-19T20:51:01.982Z,86.69
2023-02-19T20:53:29.967Z,86.36
2023-02-19T20:55:56.657Z,86.19
2023-02-19T20:58:24.129Z,86.24
2023-02-19T21:00:53.479Z,86.08
2023-02-19T21:03:20.908Z,85.96
2023-02-19T21:05:47.523Z,86.06
2023-02-19T21:08:15.021Z,85.79
2023-02-19T21:10:41.577Z,85.67
2023-02-19T21:13:08.091Z,85.63
2023-02-19T21:15:34.658Z,85.81
2023-02-19T21:18:01.491Z,85.83
2023-02-19T21:20:28.030Z,85.82
2023-02-19T21:22:54.894Z,85.62
2023-02-19T21:25:21.532Z,85.63
2023-02-19T21:27:48.048Z,85.52
2023-02-19T21:30:14.827Z,85.58
2023-02-19T21:32:41.454Z,85.72
2023-02-19T21:35:08.130Z,85.63
2023-02-19T21:37:34.640Z,85.69
2023-02-19T21:40:01.429Z,85.62
2023-02-19T21:42:27.974Z,85.58
2023-02-19T21:44:54.510Z,85.50
2023-02-19T21:47:21.122Z,85.34
2023-02-19T21:49:47.635Z,84.76
2023-02-19T21:52:14.223Z,84.83
2023-02-19T21:54:40.884Z,84.62
2023-02-19T21:57:09.382Z,84.91
2023-02-19T21:59:36.245Z,84.44
2023-02-19T22:02:02.870Z,84.22
2023-02-19T22:04:29.402Z,83.96
2023-02-19T22:06:56.766Z,83.76
2023-02-19T22:09:23.406Z,83.48
2023-02-19T22:11:49.928Z,83.51
2023-02-19T22:14:16.641Z,83.00
2023-02-19T22:16:43.283Z,83.37
2023-02-19T22:19:10.005Z,82.66
2023-02-19T22:21:36.558Z,82.53
2023-02-19T22:24:03.294Z,82.35
2023-02-19T22:26:34.423Z,82.66
2023-02-19T22:29:05.943Z,82.79
2023-02-19T22:31:33.301Z,83.07
2023-02-19T22:34:00.044Z,83.00
2023-02-19T22:36:28.626Z,83.25
2023-02-19T22:38:55.194Z,83.29
2023-02-19T22:41:21.863Z,83.26
2023-02-19T22:43:49.033Z,83.37
2023-02-19T22:46:19.216Z,83.34
2023-02-19T22:48:46.417Z,83.76
2023-02-19T22:51:15.211Z,83.91
2023-02-19T22:53:45.548Z,84.11
2023-02-19T22:56:13.974Z,84.26
2023-02-19T22:58:41.229Z,84.23
2023-02-19T23:01:08.956Z,84.39
2023-02-19T23:03:42.623Z,84.97
2023-02-19T23:06:09.286Z,85.04
2023-02-19T23:08:35.826Z,85.23
2023-02-19T23:11:02.326Z,85.44
2023-02-19T23:13:28.923Z,85.77
2023-02-19T23:15:55.633Z,85.87
2023-02-19T23:18:22.097Z,86.25
2023-02-19T23:20:48.580Z,86.45
2023-02-19T23:23:15.068Z,86.66
2023-02-19T23:25:41.997Z,86.80
2023-02-19T23:28:08.668Z,86.89
2023-02-19T23:30:35.297Z,87.31
2023-02-19T23:33:02.151Z,87.44
2023-02-19T23:35:28.839Z,87.37
2023-02-19T23:37:55.831Z,87.50
2023-02-19T23:40:22.441Z,87.83
2023-02-19T23:42:48.989Z,87.96
2023-02-19T23:45:16.606Z,88.26
2023-02-19T23:47:43.148Z,88.37
2023-02-19T23:50:10.052Z,88.70
2023-02-19T23:52:36.588Z,88.80
2023-02-19T23:55:03.067Z,88.71
2023-02-19T23:57:29.582Z,89.17
2023-02-19T23:59:56.201Z,89.23
